sensor_id;sensor_type;location;lat;lon;timestamp;pressure;altitude;pressure_sealevel;temperature;humidity
75414;BME280;64758;52.122;5.404;2023-03-16T00:00:13;102022.31;;;4.59;76.59
75414;BME280;64758;52.122;5.404;2023-03-16T00:02:41;102009.25;;;4.58;76.89
75414;BME280;64758;52.122;5.404;2023-03-16T00:05:09;102024.78;;;4.61;77.12
75414;BME280;64758;52.122;5.404;2023-03-16T00:07:36;102024.78;;;4.61;76.72
75414;BME280;64758;52.122;5.404;2023-03-16T00:10:04;102011.63;;;4.61;76.73
75414;BME280;64758;52.122;5.404;2023-03-16T00:12:30;102011.53;;;4.62;76.99
75414;BME280;64758;52.122;5.404;2023-03-16T00:15:00;102010.44;;;4.65;77.47
75414;BME280;64758;52.122;5.404;2023-03-16T00:17:27;102003.41;;;4.65;77.20
75414;BME280;64758;52.122;5.404;2023-03-16T00:19:55;101990.34;;;4.64;77.31
75414;BME280;64758;52.122;5.404;2023-03-16T00:22:27;101993.94;;;4.63;77.30
75414;BME280;64758;52.122;5.404;2023-03-16T00:24:54;102002.56;;;4.65;77.93
75414;BME280;64758;52.122;5.404;2023-03-16T00:27:23;101991.22;;;4.64;77.43
75414;BME280;64758;52.122;5.404;2023-03-16T00:29:51;101996.47;;;4.64;77.77
75414;BME280;64758;52.122;5.404;2023-03-16T00:32:26;101986.75;;;4.65;77.89
75414;BME280;64758;52.122;5.404;2023-03-16T00:34:54;101985.00;;;4.65;78.12
75414;BME280;64758;52.122;5.404;2023-03-16T00:37:21;101983.19;;;4.66;78.18
75414;BME280;64758;52.122;5.404;2023-03-16T00:39:49;101978.16;;;4.63;78.42
75414;BME280;64758;52.122;5.404;2023-03-16T00:42:17;101974.56;;;4.64;79.08
75414;BME280;64758;52.122;5.404;2023-03-16T00:44:44;101972.06;;;4.62;78.38
75414;BME280;64758;52.122;5.404;2023-03-16T00:47:11;101966.69;;;4.64;78.58
75414;BME280;64758;52.122;5.404;2023-03-16T00:49:42;101965.47;;;4.68;78.74
75414;BME280;64758;52.122;5.404;2023-03-16T00:52:11;101974.56;;;4.64;78.88
75414;BME280;64758;52.122;5.404;2023-03-16T00:54:44;101976.84;;;4.68;78.99
75414;BME280;64758;52.122;5.404;2023-03-16T00:57:14;101966.56;;;4.65;79.02
75414;BME280;64758;52.122;5.404;2023-03-16T00:59:41;101964.53;;;4.69;79.51
75414;BME280;64758;52.122;5.404;2023-03-16T01:02:08;101950.78;;;4.65;79.44
75414;BME280;64758;52.122;5.404;2023-03-16T01:04:36;101961.88;;;4.69;79.48
75414;BME280;64758;52.122;5.404;2023-03-16T01:07:03;101945.16;;;4.70;79.91
75414;BME280;64758;52.122;5.404;2023-03-16T01:09:30;101936.53;;;4.68;79.77
75414;BME280;64758;52.122;5.404;2023-03-16T01:12:08;101933.81;;;4.69;79.97
75414;BME280;64758;52.122;5.404;2023-03-16T01:14:36;101937.16;;;4.71;80.04
75414;BME280;64758;52.122;5.404;2023-03-16T01:17:04;101921.72;;;4.67;80.40
75414;BME280;64758;52.122;5.404;2023-03-16T01:19:35;101921.72;;;4.67;80.38
75414;BME280;64758;52.122;5.404;2023-03-16T01:22:06;101918.25;;;4.66;80.42
75414;BME280;64758;52.122;5.404;2023-03-16T01:24:34;101930.31;;;4.69;80.71
75414;BME280;64758;52.122;5.404;2023-03-16T01:27:01;101925.91;;;4.69;80.54
75414;BME280;64758;52.122;5.404;2023-03-16T01:29:29;101919.94;;;4.67;80.62
75414;BME280;64758;52.122;5.404;2023-03-16T01:31:56;101916.19;;;4.70;80.71
75414;BME280;64758;52.122;5.404;2023-03-16T01:34:23;101912.59;;;4.71;81.00
75414;BME280;64758;52.122;5.404;2023-03-16T01:36:50;101907.34;;;4.71;81.17
75414;BME280;64758;52.122;5.404;2023-03-16T01:39:17;101918.59;;;4.73;81.15
75414;BME280;64758;52.122;5.404;2023-03-16T01:41:44;101907.34;;;4.71;81.29
75414;BME280;64758;52.122;5.404;2023-03-16T01:44:14;101905.44;;;4.73;81.59
75414;BME280;64758;52.122;5.404;2023-03-16T01:46:41;101901.13;;;4.72;81.43
75414;BME280;64758;52.122;5.404;2023-03-16T01:51:46;101890.13;;;4.67;81.83
75414;BME280;64758;52.122;5.404;2023-03-16T01:54:27;101894.44;;;4.68;81.52
75414;BME280;64758;52.122;5.404;2023-03-16T01:57:13;101886.53;;;4.68;81.71
75414;BME280;64758;52.122;5.404;2023-03-16T01:59:51;101885.47;;;4.70;81.99
75414;BME280;64758;52.122;5.404;2023-03-16T02:02:20;101869.69;;;4.70;81.98
75414;BME280;64758;52.122;5.404;2023-03-16T02:07:28;101872.44;;;4.69;82.33
75414;BME280;64758;52.122;5.404;2023-03-16T02:09:59;101872.19;;;4.72;82.26
75414;BME280;64758;52.122;5.404;2023-03-16T02:12:27;101870.25;;;4.74;82.52
75414;BME280;64758;52.122;5.404;2023-03-16T02:14:55;101865.00;;;4.74;82.45
75414;BME280;64758;52.122;5.404;2023-03-16T02:17:27;101861.41;;;4.75;82.73
75414;BME280;64758;52.122;5.404;2023-03-16T02:23:19;101862.13;;;4.77;82.92
75414;BME280;64758;52.122;5.404;2023-03-16T02:31:05;101836.78;;;4.76;82.74
75414;BME280;64758;52.122;5.404;2023-03-16T02:33:32;101844.31;;;4.80;83.16
75414;BME280;64758;52.122;5.404;2023-03-16T02:36:00;101847.75;;;4.81;83.07
75414;BME280;64758;52.122;5.404;2023-03-16T02:38:26;101837.47;;;4.78;82.93
75414;BME280;64758;52.122;5.404;2023-03-16T02:41:08;101844.16;;;4.82;82.82
75414;BME280;64758;52.122;5.404;2023-03-16T02:43:37;101840.56;;;4.83;83.69
75414;BME280;64758;52.122;5.404;2023-03-16T02:46:05;101843.34;;;4.81;83.59
75414;BME280;64758;52.122;5.404;2023-03-16T02:48:45;101838.66;;;4.85;83.96
75414;BME280;64758;52.122;5.404;2023-03-16T02:51:14;101851.81;;;4.85;83.96
75414;BME280;64758;52.122;5.404;2023-03-16T02:53:41;101858.88;;;4.84;84.24
75414;BME280;64758;52.122;5.404;2023-03-16T02:56:07;101853.97;;;4.80;84.58
75414;BME280;64758;52.122;5.404;2023-03-16T02:58:34;101869.28;;;4.86;84.79
75414;BME280;64758;52.122;5.404;2023-03-16T03:01:00;101862.34;;;4.85;85.21
75414;BME280;64758;52.122;5.404;2023-03-16T03:03:27;101860.91;;;4.81;85.20
75414;BME280;64758;52.122;5.404;2023-03-16T03:05:54;101857.94;;;4.85;85.52
75414;BME280;64758;52.122;5.404;2023-03-16T03:08:20;101845.13;;;4.81;85.68
75414;BME280;64758;52.122;5.404;2023-03-16T03:10:48;101839.88;;;4.81;86.00
75414;BME280;64758;52.122;5.404;2023-03-16T03:13:15;101844.88;;;4.84;85.72
75414;BME280;64758;52.122;5.404;2023-03-16T03:15:42;101837.94;;;4.83;85.53
75414;BME280;64758;52.122;5.404;2023-03-16T03:18:08;101840.56;;;4.83;85.76
75414;BME280;64758;52.122;5.404;2023-03-16T03:20:35;101839.88;;;4.81;85.57
75414;BME280;64758;52.122;5.404;2023-03-16T03:23:01;101840.97;;;4.78;85.83
75414;BME280;64758;52.122;5.404;2023-03-16T03:25:28;101827.34;;;4.73;86.37
75414;BME280;64758;52.122;5.404;2023-03-16T03:27:55;101833.19;;;4.77;86.61
75414;BME280;64758;52.122;5.404;2023-03-16T03:30:23;101835.09;;;4.75;86.86
75414;BME280;64758;52.122;5.404;2023-03-16T03:32:49;101826.75;;;4.70;86.88
75414;BME280;64758;52.122;5.404;2023-03-16T03:35:18;101831.75;;;4.73;87.58
75414;BME280;64758;52.122;5.404;2023-03-16T03:37:45;101816.22;;;4.70;87.48
75414;BME280;64758;52.122;5.404;2023-03-16T03:40:13;101816.22;;;4.70;87.53
75414;BME280;64758;52.122;5.404;2023-03-16T03:42:41;101798.19;;;4.65;87.90
75414;BME280;64758;52.122;5.404;2023-03-16T03:45:09;101805.22;;;4.65;87.58
75414;BME280;64758;52.122;5.404;2023-03-16T03:47:39;101807.88;;;4.65;87.90
75414;BME280;64758;52.122;5.404;2023-03-16T03:50:08;101804.28;;;4.66;88.51
75414;BME280;64758;52.122;5.404;2023-03-16T03:52:35;101799.16;;;4.64;88.78
75414;BME280;64758;52.122;5.404;2023-03-16T03:55:01;101800.13;;;4.63;88.86
75414;BME280;64758;52.122;5.404;2023-03-16T03:57:28;101778.47;;;4.60;89.19
75414;BME280;64758;52.122;5.404;2023-03-16T03:59:54;101787.22;;;4.60;89.64
75414;BME280;64758;52.122;5.404;2023-03-16T04:02:21;101790.66;;;4.61;90.30
75414;BME280;64758;52.122;5.404;2023-03-16T04:04:47;101799.66;;;4.58;90.26
75414;BME280;64758;52.122;5.404;2023-03-16T04:07:14;101796.41;;;4.55;90.58
75414;BME280;64758;52.122;5.404;2023-03-16T04:09:40;101797.63;;;4.51;90.98
75414;BME280;64758;52.122;5.404;2023-03-16T04:12:07;101786.28;;;4.50;91.10
75414;BME280;64758;52.122;5.404;2023-03-16T04:14:34;101776.72;;;4.49;91.48
75414;BME280;64758;52.122;5.404;2023-03-16T04:17:00;101772.78;;;4.44;91.32
75414;BME280;64758;52.122;5.404;2023-03-16T04:19:27;101791.91;;;4.46;91.42
75414;BME280;64758;52.122;5.404;2023-03-16T04:21:54;101777.22;;;4.43;91.51
75414;BME280;64758;52.122;5.404;2023-03-16T04:24:20;101778.03;;;4.44;92.07
75414;BME280;64758;52.122;5.404;2023-03-16T04:26:47;101773.72;;;4.43;92.23
75414;BME280;64758;52.122;5.404;2023-03-16T04:29:14;101774.69;;;4.42;92.17
75414;BME280;64758;52.122;5.404;2023-03-16T04:31:44;101765.13;;;4.41;92.15
75414;BME280;64758;52.122;5.404;2023-03-16T04:34:11;101773.28;;;4.38;92.39
75414;BME280;64758;52.122;5.404;2023-03-16T04:36:38;101773.16;;;4.39;92.42
75414;BME280;64758;52.122;5.404;2023-03-16T04:39:05;101767.75;;;4.41;92.53
75414;BME280;64758;52.122;5.404;2023-03-16T04:41:32;101774.84;;;4.40;92.33
75414;BME280;64758;52.122;5.404;2023-03-16T04:43:58;101779.13;;;4.41;92.99
75414;BME280;64758;52.122;5.404;2023-03-16T04:46:25;101776.38;;;4.43;92.44
75414;BME280;64758;52.122;5.404;2023-03-16T04:48:52;101769.56;;;4.40;92.61
75414;BME280;64758;52.122;5.404;2023-03-16T04:51:19;101769.44;;;4.42;92.44
75414;BME280;64758;52.122;5.404;2023-03-16T04:53:47;101765.59;;;4.46;92.64
75414;BME280;64758;52.122;5.404;2023-03-16T04:56:13;101758.81;;;4.43;92.78
75414;BME280;64758;52.122;5.404;2023-03-16T04:58:47;101772.53;;;4.47;93.03
75414;BME280;64758;52.122;5.404;2023-03-16T05:01:14;101762.72;;;4.49;93.04
75414;BME280;64758;52.122;5.404;2023-03-16T05:03:41;101762.16;;;4.45;92.37
75414;BME280;64758;52.122;5.404;2023-03-16T05:06:09;101778.38;;;4.50;92.30
75414;BME280;64758;52.122;5.404;2023-03-16T05:08:37;101767.97;;;4.49;92.42
75414;BME280;64758;52.122;5.404;2023-03-16T05:11:03;101772.16;;;4.51;92.37
75414;BME280;64758;52.122;5.404;2023-03-16T05:13:30;101774.66;;;4.53;92.29
75414;BME280;64758;52.122;5.404;2023-03-16T05:15:56;101769.28;;;4.54;92.02
75414;BME280;64758;52.122;5.404;2023-03-16T05:18:23;101760.69;;;4.52;91.99
75414;BME280;64758;52.122;5.404;2023-03-16T05:20:51;101766.53;;;4.56;92.09
75414;BME280;64758;52.122;5.404;2023-03-16T05:23:19;101763.19;;;4.54;92.20
75414;BME280;64758;52.122;5.404;2023-03-16T05:25:46;101757.66;;;4.57;92.25
75414;BME280;64758;52.122;5.404;2023-03-16T05:28:13;101755.44;;;4.52;91.83
75414;BME280;64758;52.122;5.404;2023-03-16T05:30:41;101753.50;;;4.54;92.41
75414;BME280;64758;52.122;5.404;2023-03-16T05:33:08;101762.94;;;4.57;92.24
75414;BME280;64758;52.122;5.404;2023-03-16T05:35:35;101758.53;;;4.57;92.49
75414;BME280;64758;52.122;5.404;2023-03-16T05:38:01;101760.19;;;4.58;92.43
75414;BME280;64758;52.122;5.404;2023-03-16T05:40:28;101754.78;;;4.60;92.66
75414;BME280;64758;52.122;5.404;2023-03-16T05:42:56;101754.78;;;4.60;92.62
75414;BME280;64758;52.122;5.404;2023-03-16T05:45:23;101753.97;;;4.59;92.75
75414;BME280;64758;52.122;5.404;2023-03-16T05:47:50;101753.25;;;4.57;92.63
75414;BME280;64758;52.122;5.404;2023-03-16T05:50:18;101748.81;;;4.58;92.83
75414;BME280;64758;52.122;5.404;2023-03-16T05:52:45;101742.13;;;4.54;93.20
75414;BME280;64758;52.122;5.404;2023-03-16T05:55:13;101748.00;;;4.57;93.25
75414;BME280;64758;52.122;5.404;2023-03-16T05:57:40;101733.53;;;4.52;93.31
75414;BME280;64758;52.122;5.404;2023-03-16T06:00:09;101734.00;;;4.57;93.85
75414;BME280;64758;52.122;5.404;2023-03-16T06:02:46;101725.38;;;4.55;93.88
75414;BME280;64758;52.122;5.404;2023-03-16T06:05:15;101734.94;;;4.56;93.93
75414;BME280;64758;52.122;5.404;2023-03-16T06:07:42;101728.03;;;4.55;93.76
75414;BME280;64758;52.122;5.404;2023-03-16T06:10:10;101742.72;;;4.57;93.70
75414;BME280;64758;52.122;5.404;2023-03-16T06:12:37;101732.78;;;4.61;94.06
75414;BME280;64758;52.122;5.404;2023-03-16T06:15:04;101731.25;;;4.58;94.05
75414;BME280;64758;52.122;5.404;2023-03-16T06:17:35;101734.34;;;4.63;94.49
75414;BME280;64758;52.122;5.404;2023-03-16T06:20:04;101725.84;;;4.60;94.46
75414;BME280;64758;52.122;5.404;2023-03-16T06:22:37;101734.19;;;4.65;94.47
75414;BME280;64758;52.122;5.404;2023-03-16T06:25:04;101727.97;;;4.66;94.41
75414;BME280;64758;52.122;5.404;2023-03-16T06:27:31;101725.94;;;4.69;94.17
75414;BME280;64758;52.122;5.404;2023-03-16T06:29:57;101712.66;;;4.71;93.99
75414;BME280;64758;52.122;5.404;2023-03-16T06:32:24;101719.72;;;4.70;93.95
75414;BME280;64758;52.122;5.404;2023-03-16T06:34:50;101725.28;;;4.77;93.63
75414;BME280;64758;52.122;5.404;2023-03-16T06:37:17;101717.16;;;4.80;93.95
75414;BME280;64758;52.122;5.404;2023-03-16T06:39:44;101715.94;;;4.84;93.60
75414;BME280;64758;52.122;5.404;2023-03-16T06:42:10;101711.63;;;4.83;93.56
75414;BME280;64758;52.122;5.404;2023-03-16T06:44:37;101718.03;;;4.90;93.84
75414;BME280;64758;52.122;5.404;2023-03-16T06:47:03;101701.53;;;4.88;93.70
75414;BME280;64758;52.122;5.404;2023-03-16T06:49:30;101701.19;;;4.92;93.58
75414;BME280;64758;52.122;5.404;2023-03-16T06:51:56;101705.06;;;4.97;93.78
75414;BME280;64758;52.122;5.404;2023-03-16T06:54:23;101696.09;;;5.00;94.24
75414;BME280;64758;52.122;5.404;2023-03-16T06:56:50;101697.50;;;5.04;93.89
75414;BME280;64758;52.122;5.404;2023-03-16T06:59:17;101700.69;;;5.07;94.00
75414;BME280;64758;52.122;5.404;2023-03-16T07:01:44;101702.56;;;5.16;93.62
75414;BME280;64758;52.122;5.404;2023-03-16T07:04:10;101711.00;;;5.20;93.71
75414;BME280;64758;52.122;5.404;2023-03-16T07:06:38;101697.72;;;5.21;92.98
75414;BME280;64758;52.122;5.404;2023-03-16T07:09:04;101686.94;;;5.24;93.45
75414;BME280;64758;52.122;5.404;2023-03-16T07:11:31;101683.34;;;5.25;93.65
75414;BME280;64758;52.122;5.404;2023-03-16T07:13:58;101680.72;;;5.25;93.52
75414;BME280;64758;52.122;5.404;2023-03-16T07:16:24;101683.88;;;5.29;93.03
75414;BME280;64758;52.122;5.404;2023-03-16T07:18:51;101686.41;;;5.30;93.00
75414;BME280;64758;52.122;5.404;2023-03-16T07:21:18;101676.69;;;5.31;92.30
75414;BME280;64758;52.122;5.404;2023-03-16T07:23:45;101691.28;;;5.35;91.92
75414;BME280;64758;52.122;5.404;2023-03-16T07:26:11;101686.16;;;5.33;91.97
75414;BME280;64758;52.122;5.404;2023-03-16T07:28:39;101688.38;;;5.38;92.00
75414;BME280;64758;52.122;5.404;2023-03-16T07:31:06;101692.66;;;5.39;92.51
75414;BME280;64758;52.122;5.404;2023-03-16T07:33:34;101684.78;;;5.39;92.58
75414;BME280;64758;52.122;5.404;2023-03-16T07:36:00;101686.44;;;5.40;92.55
75414;BME280;64758;52.122;5.404;2023-03-16T07:38:31;101686.59;;;5.38;92.51
75414;BME280;64758;52.122;5.404;2023-03-16T07:40:59;101680.72;;;5.35;92.84
75414;BME280;64758;52.122;5.404;2023-03-16T07:43:26;101684.91;;;5.37;92.67
75414;BME280;64758;52.122;5.404;2023-03-16T07:45:54;101685.63;;;5.39;93.35
75414;BME280;64758;52.122;5.404;2023-03-16T07:48:21;101686.84;;;5.35;92.61
75414;BME280;64758;52.122;5.404;2023-03-16T07:50:48;101694.59;;;5.37;92.74
75414;BME280;64758;52.122;5.404;2023-03-16T07:53:15;101688.78;;;5.33;93.15
75414;BME280;64758;52.122;5.404;2023-03-16T07:55:42;101683.38;;;5.35;92.95
75414;BME280;64758;52.122;5.404;2023-03-16T07:58:09;101688.94;;;5.41;93.00
75414;BME280;64758;52.122;5.404;2023-03-16T08:00:37;101692.28;;;5.43;92.59
75414;BME280;64758;52.122;5.404;2023-03-16T08:03:04;101701.72;;;5.46;92.50
75414;BME280;64758;52.122;5.404;2023-03-16T08:05:31;101698.00;;;5.48;92.72
75414;BME280;64758;52.122;5.404;2023-03-16T08:07:58;101701.19;;;5.52;93.02
75414;BME280;64758;52.122;5.404;2023-03-16T08:10:25;101696.53;;;5.65;92.78
75414;BME280;64758;52.122;5.404;2023-03-16T08:12:52;101689.63;;;5.73;92.65
75414;BME280;64758;52.122;5.404;2023-03-16T08:15:18;101684.41;;;5.83;92.82
75414;BME280;64758;52.122;5.404;2023-03-16T08:17:45;101668.91;;;5.99;92.70
75414;BME280;64758;52.122;5.404;2023-03-16T08:20:12;101665.59;;;6.06;92.31
75414;BME280;64758;52.122;5.404;2023-03-16T08:22:41;101678.38;;;6.20;92.46
75414;BME280;64758;52.122;5.404;2023-03-16T08:25:12;101667.97;;;6.28;91.57
75414;BME280;64758;52.122;5.404;2023-03-16T08:27:38;101660.03;;;6.37;91.55
75414;BME280;64758;52.122;5.404;2023-03-16T08:30:08;101652.81;;;6.39;90.53
75414;BME280;64758;52.122;5.404;2023-03-16T08:32:37;101661.28;;;6.43;90.21
75414;BME280;64758;52.122;5.404;2023-03-16T08:35:09;101657.53;;;6.45;90.55
75414;BME280;64758;52.122;5.404;2023-03-16T08:37:37;101669.47;;;6.49;89.43
75414;BME280;64758;52.122;5.404;2023-03-16T08:40:04;101667.38;;;6.53;90.23
75414;BME280;64758;52.122;5.404;2023-03-16T08:42:39;101666.97;;;6.57;90.04
75414;BME280;64758;52.122;5.404;2023-03-16T08:45:07;101661.25;;;6.62;89.53
75414;BME280;64758;52.122;5.404;2023-03-16T08:47:38;101668.06;;;6.64;89.01
75414;BME280;64758;52.122;5.404;2023-03-16T08:50:07;101666.13;;;6.66;88.41
75414;BME280;64758;52.122;5.404;2023-03-16T08:52:34;101671.25;;;6.68;87.28
75414;BME280;64758;52.122;5.404;2023-03-16T08:55:03;101660.44;;;6.61;86.40
75414;BME280;64758;52.122;5.404;2023-03-16T08:57:32;101669.34;;;6.60;86.14
75414;BME280;64758;52.122;5.404;2023-03-16T08:59:58;101655.56;;;6.66;86.35
75414;BME280;64758;52.122;5.404;2023-03-16T09:02:25;101658.91;;;6.68;85.93
75414;BME280;64758;52.122;5.404;2023-03-16T09:04:52;101664.84;;;6.80;85.75
75414;BME280;64758;52.122;5.404;2023-03-16T09:07:18;101659.56;;;6.80;84.46
75414;BME280;64758;52.122;5.404;2023-03-16T09:09:45;101654.28;;;6.80;84.63
75414;BME280;64758;52.122;5.404;2023-03-16T09:12:12;101649.28;;;6.86;84.31
75414;BME280;64758;52.122;5.404;2023-03-16T09:14:39;101644.41;;;6.91;84.29
75414;BME280;64758;52.122;5.404;2023-03-16T09:17:05;101649.13;;;6.97;84.31
75414;BME280;64758;52.122;5.404;2023-03-16T09:19:37;101642.47;;;6.93;84.44
75414;BME280;64758;52.122;5.404;2023-03-16T09:22:24;101649.28;;;6.86;84.94
75414;BME280;64758;52.122;5.404;2023-03-16T09:24:50;101652.75;;;6.87;84.65
75414;BME280;64758;52.122;5.404;2023-03-16T09:27:17;101647.47;;;6.87;84.28
75414;BME280;64758;52.122;5.404;2023-03-16T09:29:44;101643.84;;;6.88;83.94
75414;BME280;64758;52.122;5.404;2023-03-16T09:32:12;101664.69;;;6.91;84.37
75414;BME280;64758;52.122;5.404;2023-03-16T09:34:39;101648.84;;;6.91;84.25
75414;BME280;64758;52.122;5.404;2023-03-16T09:37:06;101648.28;;;6.97;84.17
75414;BME280;64758;52.122;5.404;2023-03-16T09:39:33;101628.69;;;6.99;84.41
75414;BME280;64758;52.122;5.404;2023-03-16T09:45:05;101643.78;;;7.07;83.60
75414;BME280;64758;52.122;5.404;2023-03-16T09:47:34;101633.50;;;7.13;83.01
75414;BME280;64758;52.122;5.404;2023-03-16T09:50:10;101629.25;;;7.30;83.50
75414;BME280;64758;52.122;5.404;2023-03-16T09:53:00;101629.75;;;7.43;82.28
75414;BME280;64758;52.122;5.404;2023-03-16T09:55:32;101625.94;;;7.54;81.94
75414;BME280;64758;52.122;5.404;2023-03-16T09:58:00;101634.34;;;7.67;80.82
75414;BME280;64758;52.122;5.404;2023-03-16T10:00:33;101626.50;;;7.75;80.73
75414;BME280;64758;52.122;5.404;2023-03-16T10:05:51;101623.41;;;8.15;79.64
75414;BME280;64758;52.122;5.404;2023-03-16T10:08:21;101616.75;;;8.20;77.99
75414;BME280;64758;52.122;5.404;2023-03-16T10:16:50;101599.94;;;8.72;77.29
75414;BME280;64758;52.122;5.404;2023-03-16T10:19:39;101588.50;;;8.72;76.01
75414;BME280;64758;52.122;5.404;2023-03-16T10:22:31;101611.31;;;8.90;76.35
75414;BME280;64758;52.122;5.404;2023-03-16T10:27:36;101591.16;;;9.05;74.11
75414;BME280;64758;52.122;5.404;2023-03-16T10:30:23;101601.72;;;9.22;73.91
75414;BME280;64758;52.122;5.404;2023-03-16T10:32:51;101598.13;;;9.39;73.83
75414;BME280;64758;52.122;5.404;2023-03-16T10:35:40;101583.63;;;9.59;74.47
75414;BME280;64758;52.122;5.404;2023-03-16T10:43:51;101562.84;;;10.12;71.33
75414;BME280;64758;52.122;5.404;2023-03-16T10:46:18;101569.16;;;10.19;70.66
75414;BME280;64758;52.122;5.404;2023-03-16T10:48:53;101566.66;;;10.33;70.99
75414;BME280;64758;52.122;5.404;2023-03-16T10:51:23;101564.34;;;10.30;67.65
75414;BME280;64758;52.122;5.404;2023-03-16T10:53:51;101575.28;;;10.35;68.23
75414;BME280;64758;52.122;5.404;2023-03-16T10:56:22;101566.97;;;10.38;67.48
75414;BME280;64758;52.122;5.404;2023-03-16T10:58:50;101563.16;;;10.33;67.75
75414;BME280;64758;52.122;5.404;2023-03-16T11:01:23;101556.84;;;10.34;69.05
75414;BME280;64758;52.122;5.404;2023-03-16T11:03:53;101547.38;;;10.47;67.84
75414;BME280;64758;52.122;5.404;2023-03-16T11:06:26;101561.31;;;10.57;66.96
75414;BME280;64758;52.122;5.404;2023-03-16T11:09:11;101553.00;;;10.68;67.42
75414;BME280;64758;52.122;5.404;2023-03-16T11:11:45;101548.50;;;10.61;65.96
75414;BME280;64758;52.122;5.404;2023-03-16T11:14:14;101534.78;;;10.49;66.31
75414;BME280;64758;52.122;5.404;2023-03-16T11:16:58;101533.25;;;10.47;66.05
75414;BME280;64758;52.122;5.404;2023-03-16T11:22:13;101534.94;;;10.40;66.98
75414;BME280;64758;52.122;5.404;2023-03-16T11:25:03;101521.66;;;10.40;66.89
75414;BME280;64758;52.122;5.404;2023-03-16T11:31:02;101518.50;;;10.52;66.23
75414;BME280;64758;52.122;5.404;2023-03-16T11:33:12;101508.84;;;10.59;64.82
75414;BME280;64758;52.122;5.404;2023-03-16T11:41:28;101500.97;;;10.82;65.83
75414;BME280;64758;52.122;5.404;2023-03-16T11:44:17;101505.25;;;10.91;65.44
75414;BME280;64758;52.122;5.404;2023-03-16T11:47:16;101512.50;;;11.05;65.36
75414;BME280;64758;52.122;5.404;2023-03-16T11:50:00;101509.00;;;11.12;64.58
75414;BME280;64758;52.122;5.404;2023-03-16T11:55:24;101503.31;;;11.45;64.49
75414;BME280;64758;52.122;5.404;2023-03-16T12:03:43;101486.88;;;11.72;62.97
75414;BME280;64758;52.122;5.404;2023-03-16T12:11:52;101475.97;;;12.04;63.10
75414;BME280;64758;52.122;5.404;2023-03-16T12:14:28;101469.56;;;12.13;60.87
75414;BME280;64758;52.122;5.404;2023-03-16T12:17:24;101466.78;;;12.07;61.26
75414;BME280;64758;52.122;5.404;2023-03-16T12:20:00;101459.69;;;12.36;60.82
75414;BME280;64758;52.122;5.404;2023-03-16T12:22:40;101455.09;;;12.45;59.85
75414;BME280;64758;52.122;5.404;2023-03-16T12:25:20;101464.09;;;12.58;59.91
75414;BME280;64758;52.122;5.404;2023-03-16T12:27:52;101453.53;;;12.65;59.39
75414;BME280;64758;52.122;5.404;2023-03-16T12:33:28;101446.97;;;12.96;58.03
75414;BME280;64758;52.122;5.404;2023-03-16T12:44:14;101418.44;;;13.11;56.42
75414;BME280;64758;52.122;5.404;2023-03-16T12:46:51;101423.03;;;13.17;54.73
75414;BME280;64758;52.122;5.404;2023-03-16T12:49:25;101420.31;;;13.10;53.65
75414;BME280;64758;52.122;5.404;2023-03-16T12:51:59;101405.19;;;13.17;53.53
75414;BME280;64758;52.122;5.404;2023-03-16T12:54:27;101400.78;;;13.10;53.17
75414;BME280;64758;52.122;5.404;2023-03-16T12:57:04;101410.03;;;13.28;54.63
75414;BME280;64758;52.122;5.404;2023-03-16T12:59:42;101393.41;;;13.47;52.87
75414;BME280;64758;52.122;5.404;2023-03-16T13:02:18;101384.63;;;13.32;53.60
75414;BME280;64758;52.122;5.404;2023-03-16T13:04:47;101376.63;;;13.32;52.98
75414;BME280;64758;52.122;5.404;2023-03-16T13:07:28;101370.19;;;13.48;54.52
75414;BME280;64758;52.122;5.404;2023-03-16T13:10:00;101365.97;;;13.60;53.37
75414;BME280;64758;52.122;5.404;2023-03-16T13:12:31;101361.19;;;13.76;52.73
75414;BME280;64758;52.122;5.404;2023-03-16T13:15:24;101351.50;;;13.96;53.04
75414;BME280;64758;52.122;5.404;2023-03-16T13:20:54;101359.44;;;13.62;52.54
75414;BME280;64758;52.122;5.404;2023-03-16T13:23:27;101351.44;;;13.62;51.10
75414;BME280;64758;52.122;5.404;2023-03-16T13:28:35;101346.84;;;13.77;50.24
75414;BME280;64758;52.122;5.404;2023-03-16T13:31:25;101366.53;;;14.03;52.11
75414;BME280;64758;52.122;5.404;2023-03-16T13:33:55;101344.78;;;14.13;49.81
75414;BME280;64758;52.122;5.404;2023-03-16T13:36:27;101346.81;;;14.04;49.86
75414;BME280;64758;52.122;5.404;2023-03-16T13:41:23;101340.03;;;14.08;49.93
75414;BME280;64758;52.122;5.404;2023-03-16T13:43:50;101329.94;;;14.04;49.26
75414;BME280;64758;52.122;5.404;2023-03-16T13:46:19;101318.69;;;14.08;48.86
75414;BME280;64758;52.122;5.404;2023-03-16T13:48:48;101323.91;;;14.23;50.24
75414;BME280;64758;52.122;5.404;2023-03-16T13:51:16;101309.03;;;14.48;48.97
75414;BME280;64758;52.122;5.404;2023-03-16T13:53:44;101325.97;;;14.68;48.61
75414;BME280;64758;52.122;5.404;2023-03-16T13:56:16;101301.31;;;14.72;48.96
75414;BME280;64758;52.122;5.404;2023-03-16T13:58:46;101310.75;;;14.75;48.19
75414;BME280;64758;52.122;5.404;2023-03-16T14:01:27;101312.66;;;14.87;48.18
75414;BME280;64758;52.122;5.404;2023-03-16T14:03:57;101296.81;;;14.99;47.56
75414;BME280;64758;52.122;5.404;2023-03-16T14:06:27;101299.94;;;15.09;47.24
75414;BME280;64758;52.122;5.404;2023-03-16T14:08:59;101306.75;;;15.11;47.29
75414;BME280;64758;52.122;5.404;2023-03-16T14:11:32;101309.81;;;15.15;46.84
75414;BME280;64758;52.122;5.404;2023-03-16T14:14:00;101299.09;;;15.02;46.93
75414;BME280;64758;52.122;5.404;2023-03-16T14:16:28;101286.75;;;15.14;47.19
75414;BME280;64758;52.122;5.404;2023-03-16T14:19:00;101284.94;;;15.33;46.73
75414;BME280;64758;52.122;5.404;2023-03-16T14:21:29;101289.06;;;15.42;46.10
75414;BME280;64758;52.122;5.404;2023-03-16T14:24:01;101290.28;;;15.53;46.11
75414;BME280;64758;52.122;5.404;2023-03-16T14:26:41;101277.13;;;15.45;45.84
75414;BME280;64758;52.122;5.404;2023-03-16T14:29:30;101286.16;;;15.25;47.16